Time;durP1;ratioP1;P1;durP2;ratioP2;P2;SDS_P1;SDS_P2;PMS_P1;PMS_P2;Temp;Humidity;BMP_temperature;BMP_pressure;BME280_temperature;BME280_humidity;BME280_pressure;Samples;Min_cycle;Max_cycle;Signal;HPM_P1;HPM_P2
2023/01/06 00:01:57;;;;;;;4.97;2.50;;;;;;;9.02;100.00;101751.59;4962152;28;20047;-94
2023/01/06 00:04:23;;;;;;;2.60;2.40;;;;;;;9.02;100.00;101748.16;4927781;29;20050;-95
2023/01/06 00:06:48;;;;;;;5.03;2.53;;;;;;;9.03;100.00;101749.88;4924405;29;20028;-94
2023/01/06 00:09:13;;;;;;;5.57;2.80;;;;;;;9.04;100.00;101752.47;4930938;29;20390;-95
2023/01/06 00:12:00;;;;;;;5.53;3.07;;;;;;;9.04;100.00;101746.44;4935830;29;20032;-95
2023/01/06 00:14:25;;;;;;;3.72;2.60;;;;;;;9.05;100.00;101748.19;4933489;29;20032;-96
2023/01/06 00:16:59;;;;;;;2.73;2.17;;;;;;;9.06;100.00;101735.22;4929529;29;20038;-94
2023/01/06 00:19:24;;;;;;;4.32;2.80;;;;;;;9.07;100.00;101734.38;4941650;29;20040;-95
2023/01/06 00:21:50;;;;;;;4.30;2.73;;;;;;;9.07;100.00;101730.91;4942995;29;20048;-95
2023/01/06 00:24:36;;;;;;;3.67;2.70;;;;;;;9.08;100.00;101728.34;4931866;29;20107;-95
2023/01/06 00:27:02;;;;;;;4.65;3.00;;;;;;;9.08;100.00;101728.34;4927015;29;20079;-94
2023/01/06 00:29:48;;;;;;;6.30;2.90;;;;;;;9.10;100.00;101737.00;4934316;29;20096;-95
2023/01/06 00:32:14;;;;;;;4.78;2.92;;;;;;;9.09;100.00;101735.25;4927343;29;20103;-95
2023/01/06 00:34:42;;;;;;;6.23;3.20;;;;;;;9.10;100.00;101729.22;4918856;29;20096;-95
2023/01/06 00:37:08;;;;;;;5.72;3.17;;;;;;;9.11;100.00;101722.31;4918571;29;20031;-94
2023/01/06 00:39:33;;;;;;;6.53;3.10;;;;;;;9.11;100.00;101722.31;4917150;29;20036;-96
2023/01/06 00:44:48;;;;;;;5.22;2.53;;;;;;;9.09;100.00;101713.66;4919321;29;20051;-94
2023/01/06 00:47:28;;;;;;;3.42;2.40;;;;;;;9.11;100.00;101722.31;4918708;29;20024;-95
2023/01/06 00:49:54;;;;;;;4.03;2.30;;;;;;;9.09;100.00;101719.72;4919043;29;20025;-94
2023/01/06 00:52:37;;;;;;;3.73;2.40;;;;;;;9.12;100.00;101724.03;4919134;29;20529;-95
2023/01/06 00:55:05;;;;;;;3.00;2.20;;;;;;;9.08;100.00;101717.09;4918578;29;20469;-94
2023/01/06 00:57:30;;;;;;;2.58;2.20;;;;;;;9.10;100.00;101716.28;4918407;29;20109;-95
2023/01/06 01:00:18;;;;;;;3.57;2.20;;;;;;;9.13;100.00;101725.78;4918501;29;20430;-94
2023/01/06 01:02:44;;;;;;;2.58;2.10;;;;;;;9.12;100.00;101727.47;4918844;29;20044;-95
2023/01/06 01:05:09;;;;;;;2.43;2.07;;;;;;;9.10;100.00;101721.44;4918464;29;20047;-95
2023/01/06 01:14:20;;;;;;;2.38;1.90;;;;;;;9.11;100.00;101712.81;4878990;29;20036;-95
2023/01/06 01:16:46;;;;;;;1.95;1.75;;;;;;;9.11;100.00;101715.41;4917549;29;20047;-94
2023/01/06 01:19:37;;;;;;;3.70;1.80;;;;;;;9.14;100.00;101716.25;4918112;29;20060;-95
2023/01/06 01:22:23;;;;;;;4.55;2.20;;;;;;;9.15;100.00;101712.81;4924679;23;20067;-96
2023/01/06 01:24:48;;;;;;;3.60;2.40;;;;;;;9.11;100.00;101718.00;4918311;29;20068;-95
2023/01/06 01:27:14;;;;;;;3.80;2.15;;;;;;;9.12;100.00;101713.69;4918488;29;20360;-94
2023/01/06 01:29:39;;;;;;;3.27;2.00;;;;;;;9.16;100.00;101711.97;4918157;29;20020;-95
2023/01/06 01:32:24;;;;;;;1.80;1.70;;;;;;;9.14;100.00;101706.78;4918016;29;20107;-94
2023/01/06 01:34:50;;;;;;;3.17;1.90;;;;;;;9.15;100.00;101707.63;4899114;29;20039;-95
2023/01/06 01:37:15;;;;;;;2.20;1.90;;;;;;;9.14;100.00;101700.72;4899139;29;20107;-94
2023/01/06 01:40:01;;;;;;;2.37;2.10;;;;;;;9.14;100.00;101699.00;4899559;29;20382;-95
2023/01/06 01:42:26;;;;;;;2.28;1.92;;;;;;;9.12;100.00;101685.19;4900288;29;20052;-95
2023/01/06 01:45:15;;;;;;;2.53;2.00;;;;;;;9.14;100.00;101682.59;4912920;29;20087;-94
2023/01/06 01:47:48;;;;;;;2.33;1.80;;;;;;;9.13;100.00;101684.34;4899166;29;20466;-95
2023/01/06 01:50:38;;;;;;;3.80;2.28;;;;;;;9.17;100.00;101683.50;4899063;29;20033;-95
2023/01/06 01:53:25;;;;;;;2.33;1.92;;;;;;;9.14;100.00;101677.41;4899091;29;20029;-94
2023/01/06 01:55:54;;;;;;;2.50;1.90;;;;;;;9.18;100.00;101679.16;4899666;29;20033;-96
2023/01/06 01:59:11;;;;;;;3.15;1.88;;;;;;;9.17;100.00;101667.97;4898983;29;20104;-95
2023/01/06 02:01:36;;;;;;;1.70;1.60;;;;;;;9.15;100.00;101663.59;4899476;29;20051;-96
2023/01/06 02:04:02;;;;;;;3.83;2.03;;;;;;;9.13;100.00;101673.97;4924059;29;20103;-94
2023/01/06 02:06:29;;;;;;;3.58;1.70;;;;;;;9.12;100.00;101667.91;4937164;29;20063;-95
2023/01/06 02:09:24;;;;;;;1.50;1.40;;;;;;;9.16;100.00;101670.53;4937750;29;20024;-96
2023/01/06 02:12:08;;;;;;;1.60;1.50;;;;;;;9.14;100.00;101669.66;4937463;29;20028;-94
2023/01/06 02:14:33;;;;;;;1.52;1.42;;;;;;;9.12;100.00;101662.72;4951166;29;20020;-95
2023/01/06 02:17:53;;;;;;;1.73;1.50;;;;;;;9.16;100.00;101671.41;4947345;29;20155;-95
2023/01/06 02:20:57;;;;;;;1.85;1.30;;;;;;;9.17;100.00;101669.66;4948601;29;20096;-96
2023/01/06 02:24:12;;;;;;;1.73;1.30;;;;;;;9.17;100.00;101667.97;4948068;29;20052;-96
2023/01/06 02:30:11;;;;;;;1.80;1.50;;;;;;;9.18;100.00;101671.41;4965835;23;20083;-95
2023/01/06 02:32:53;;;;;;;1.83;1.42;;;;;;;9.22;100.00;101657.63;4901166;29;20044;-95
2023/01/06 02:36:01;;;;;;;3.40;1.55;;;;;;;9.21;100.00;101654.16;4917559;29;20112;-95
2023/01/06 02:38:45;;;;;;;2.67;1.20;;;;;;;9.21;100.00;101643.78;4909986;29;20064;-95
2023/01/06 02:41:31;;;;;;;2.25;1.52;;;;;;;9.22;100.00;101642.06;4917547;29;20069;-96
2023/01/06 02:44:06;;;;;;;1.85;1.55;;;;;;;9.20;100.00;101633.44;4917577;29;20498;-96
2023/01/06 02:46:43;;;;;;;2.35;1.42;;;;;;;9.20;100.00;101628.25;4917855;29;20079;-95
2023/01/06 02:49:27;;;;;;;1.60;1.10;;;;;;;9.19;100.00;101623.94;4917376;29;20811;-96
2023/01/06 02:52:31;;;;;;;2.70;1.35;;;;;;;9.19;100.00;101621.34;4917303;29;20116;-96
2023/01/06 02:55:09;;;;;;;2.42;1.35;;;;;;;9.18;100.00;101617.88;4917552;29;20351;-96
2023/01/06 02:57:43;;;;;;;1.52;1.17;;;;;;;9.18;100.00;101615.28;4917773;29;20517;-96
2023/01/06 03:00:33;;;;;;;1.10;1.00;;;;;;;9.20;100.00;101617.88;4916864;29;20024;-95
2023/01/06 03:03:03;;;;;;;1.08;0.93;;;;;;;9.19;100.00;101617.00;4919291;29;20035;-95
2023/01/06 03:06:03;;;;;;;0.98;0.90;;;;;;;9.21;100.00;101614.44;4921463;29;20194;-95
2023/01/06 03:08:50;;;;;;;0.80;0.80;;;;;;;9.18;100.00;101607.50;4921215;29;20032;-95
2023/01/06 03:11:25;;;;;;;1.02;0.90;;;;;;;9.17;100.00;101608.41;4920845;29;20040;-95
2023/01/06 03:14:21;;;;;;;2.38;1.20;;;;;;;9.21;100.00;101611.84;4928956;29;20043;-94
2023/01/06 03:17:09;;;;;;;2.80;1.40;;;;;;;9.18;100.00;101594.56;4920200;29;20059;-95
2023/01/06 03:19:35;;;;;;;2.17;1.42;;;;;;;9.21;100.00;101601.50;4883509;29;20068;-96
2023/01/06 03:22:41;;;;;;;3.47;1.57;;;;;;;9.22;100.00;101595.44;4920839;29;20028;-96
2023/01/06 03:25:19;;;;;;;2.30;1.45;;;;;;;9.23;100.00;101589.41;4920833;29;20036;-95
2023/01/06 03:27:44;;;;;;;2.42;1.30;;;;;;;9.28;100.00;101598.03;4920592;29;20029;-95
2023/01/06 03:30:36;;;;;;;1.50;1.40;;;;;;;9.26;100.00;101592.00;4919663;29;20493;-95
2023/01/06 03:33:35;;;;;;;3.30;1.58;;;;;;;9.25;100.00;101595.44;4920862;29;20444;-95
2023/01/06 03:36:26;;;;;;;1.70;1.40;;;;;;;9.23;100.00;101592.00;4920538;29;20028;-96
2023/01/06 03:39:14;;;;;;;2.28;1.58;;;;;;;9.21;100.00;101593.72;4920069;29;20040;-95
2023/01/06 03:45:49;;;;;;;2.95;1.38;;;;;;;9.23;100.00;101574.72;4872719;29;20046;-96
2023/01/06 03:48:18;;;;;;;3.13;1.52;;;;;;;9.25;100.00;101585.06;4919977;29;20425;-96
2023/01/06 03:51:32;;;;;;;4.55;1.65;;;;;;;9.23;99.93;101590.25;4920260;29;20036;-95
2023/01/06 03:54:04;;;;;;;1.73;1.60;;;;;;;9.22;99.70;101588.53;4920293;29;20115;-96
2023/01/06 04:00:11;;;;;;;3.00;1.60;;;;;;;9.25;99.90;101582.50;4944592;23;20541;-96
2023/01/06 04:03:08;;;;;;;3.25;1.60;;;;;;;9.27;99.96;101573.88;4920170;29;20076;-96
2023/01/06 04:05:54;;;;;;;3.60;1.80;;;;;;;9.25;99.77;101559.16;4901226;29;20032;-96
2023/01/06 04:08:19;;;;;;;3.90;1.52;;;;;;;9.28;100.00;101569.56;4901306;29;20029;-95
2023/01/06 04:10:44;;;;;;;3.03;1.80;;;;;;;9.24;99.80;101560.03;4901024;29;20025;-95
2023/01/06 04:13:22;;;;;;;2.10;1.60;;;;;;;9.24;100.00;101554.84;4900929;29;20028;-95
2023/01/06 04:15:47;;;;;;;2.97;1.65;;;;;;;9.30;99.73;101556.59;4901491;29;20029;-95
2023/01/06 04:18:13;;;;;;;1.80;1.33;;;;;;;9.30;100.00;101549.69;4901199;29;20033;-95
2023/01/06 04:24:00;;;;;;;3.10;1.50;;;;;;;9.33;99.67;101536.75;4901187;29;20417;-96
2023/01/06 04:26:25;;;;;;;1.40;1.30;;;;;;;9.30;99.86;101531.56;4900254;29;20020;-96
2023/01/06 04:28:51;;;;;;;3.20;1.60;;;;;;;9.35;99.77;101535.00;4901371;29;20035;-95
2023/01/06 04:31:35;;;;;;;2.57;1.50;;;;;;;9.36;99.53;101533.28;4900812;29;20029;-96
2023/01/06 04:34:00;;;;;;;1.75;1.52;;;;;;;9.31;99.03;101525.53;4920126;29;20024;-96
2023/01/06 04:36:26;;;;;;;1.97;1.60;;;;;;;9.32;98.71;101514.31;4919873;29;20132;-95
2023/01/06 04:39:10;;;;;;;2.13;1.50;;;;;;;9.36;99.41;101513.41;4919364;29;20024;-95
2023/01/06 04:41:35;;;;;;;1.88;1.38;;;;;;;9.37;99.07;101509.97;4921102;29;20052;-95
2023/01/06 04:44:00;;;;;;;3.60;1.90;;;;;;;9.35;98.89;101509.09;4934474;29;20031;-95
2023/01/06 04:46:26;;;;;;;3.40;1.63;;;;;;;9.38;99.34;101503.94;4919429;29;20056;-95
2023/01/06 04:48:51;;;;;;;2.27;1.30;;;;;;;9.37;99.37;101499.63;4919382;29;20032;-96
2023/01/06 04:51:39;;;;;;;1.17;1.07;;;;;;;9.36;99.06;101504.81;4918829;29;20111;-96
2023/01/06 04:54:05;;;;;;;1.23;1.20;;;;;;;9.34;99.24;101502.22;4936877;23;20059;-95
2023/01/06 04:57:02;;;;;;;2.73;1.20;;;;;;;9.39;98.87;101513.44;4937664;29;20358;-96
2023/01/06 04:59:43;;;;;;;1.83;1.27;;;;;;;9.39;98.72;101503.06;4935540;29;20027;-95
2023/01/06 05:02:08;;;;;;;1.40;1.05;;;;;;;9.37;98.93;101504.78;4937794;29;20118;-95
2023/01/06 05:04:33;;;;;;;0.90;0.90;;;;;;;9.34;99.15;101504.81;4937748;29;20078;-95
2023/01/06 05:07:21;;;;;;;1.30;1.20;;;;;;;9.37;98.57;101503.94;4937621;29;20553;-96
2023/01/06 05:10:06;;;;;;;1.17;1.08;;;;;;;9.37;98.89;101496.16;4938581;29;20031;-95
2023/01/06 05:12:33;;;;;;;2.65;1.00;;;;;;;9.36;98.99;101484.06;4938087;29;20484;-95
2023/01/06 05:15:16;;;;;;;2.72;0.98;;;;;;;9.35;98.77;101483.19;4937962;29;20027;-95
2023/01/06 05:17:41;;;;;;;1.02;0.90;;;;;;;9.33;98.66;101484.94;4937655;29;20023;-95
2023/01/06 05:20:07;;;;;;;0.80;0.80;;;;;;;9.35;99.38;101501.34;4937157;29;20028;-96
2023/01/06 05:26:03;;;;;;;1.55;1.20;;;;;;;9.34;98.72;101486.69;4936898;29;20413;-96
2023/01/06 05:28:44;;;;;;;1.10;0.70;;;;;;;9.34;98.57;101489.28;4938648;29;20028;-94
2023/01/06 05:31:10;;;;;;;1.80;1.13;;;;;;;9.34;99.08;101490.97;4937471;29;20110;-95
2023/01/06 05:33:36;;;;;;;2.78;1.40;;;;;;;9.35;98.71;101492.72;4937588;29;20036;-96
2023/01/06 05:36:23;;;;;;;1.30;1.20;;;;;;;9.35;98.51;101498.75;4937677;29;20469;-96
2023/01/06 05:38:53;;;;;;;2.40;1.75;;;;;;;9.35;98.18;101490.97;4938004;29;20016;-95
2023/01/06 05:41:38;;;;;;;1.83;1.30;;;;;;;9.38;98.72;101501.34;4937225;29;20036;-95
2023/01/06 05:44:03;;;;;;;1.55;1.20;;;;;;;9.35;98.51;101493.56;4937279;29;20063;-96
2023/01/06 05:46:29;;;;;;;1.13;1.00;;;;;;;9.36;98.59;101500.47;4937330;29;20062;-95
2023/01/06 05:49:16;;;;;;;1.80;1.20;;;;;;;9.38;98.67;101498.75;4937710;29;20024;-95
2023/01/06 05:51:41;;;;;;;1.67;1.30;;;;;;;9.37;98.50;101491.84;4936560;29;20060;-95
2023/01/06 05:54:26;;;;;;;1.57;1.03;;;;;;;9.37;98.24;101491.84;4936549;29;20051;-94
2023/01/06 05:56:54;;;;;;;1.75;1.10;;;;;;;9.36;98.41;101484.94;4935611;29;20031;-95
2023/01/06 05:59:24;;;;;;;0.95;0.95;;;;;;;9.37;98.39;101493.59;4917763;29;20492;-96
2023/01/06 06:01:50;;;;;;;1.23;0.95;;;;;;;9.34;98.15;101490.97;4918190;29;20031;-95
2023/01/06 06:04:15;;;;;;;1.23;1.13;;;;;;;9.35;98.17;101493.56;4918087;29;20020;-96
2023/01/06 06:07:02;;;;;;;2.40;1.30;;;;;;;9.40;98.28;101497.03;4917800;29;20044;-95
2023/01/06 06:09:27;;;;;;;3.60;1.63;;;;;;;9.39;98.38;101497.03;4918331;29;20099;-96
2023/01/06 06:12:11;;;;;;;1.40;1.30;;;;;;;9.38;98.74;101498.75;4923268;29;20060;-95
2023/01/06 06:14:39;;;;;;;1.42;1.20;;;;;;;9.34;99.14;101499.63;4926371;29;20120;-95
2023/01/06 06:17:17;;;;;;;3.00;1.10;;;;;;;9.36;98.85;101495.28;4918191;29;20083;-96
2023/01/06 06:19:42;;;;;;;1.27;1.17;;;;;;;9.32;99.37;101496.16;4924503;23;20051;-96
2023/01/06 06:22:07;;;;;;;1.73;1.37;;;;;;;9.33;99.07;101502.19;4917993;29;20025;-96
2023/01/06 06:24:52;;;;;;;2.07;1.43;;;;;;;9.35;99.30;101493.56;4917788;29;20457;-96
2023/01/06 06:27:20;;;;;;;1.55;1.45;;;;;;;9.32;99.51;101503.06;4917842;29;20039;-95
2023/01/06 06:30:06;;;;;;;1.92;1.40;;;;;;;9.37;98.73;101502.19;4917762;29;20060;-95
2023/01/06 06:32:32;;;;;;;;;;;;;;;9.36;99.15;101490.09;4917348;29;20123;-95
2023/01/06 06:34:57;;;;;;;1.97;1.40;;;;;;;9.32;99.01;101487.53;4917882;29;19977;-95
2023/01/06 06:37:31;;;;;;;1.80;1.50;;;;;;;9.36;98.91;101492.69;4920733;29;20035;-96
2023/01/06 06:40:06;;;;;;;1.50;1.40;;;;;;;9.48;98.72;101498.75;4920836;29;20083;-96
2023/01/06 06:42:37;;;;;;;1.20;1.17;;;;;;;9.39;99.00;101494.44;4921863;29;20032;-95
2023/01/06 06:45:21;;;;;;;2.15;1.60;;;;;;;9.41;98.99;101498.75;4921766;29;20032;-95
2023/01/06 06:47:58;;;;;;;2.63;1.50;;;;;;;9.37;99.27;101491.84;4921807;29;20032;-95
2023/01/06 06:50:24;;;;;;;2.88;1.30;;;;;;;9.38;99.63;101482.34;4921672;29;20549;-95
2023/01/06 06:52:49;;;;;;;3.83;1.70;;;;;;;9.35;99.88;101493.56;4921308;29;20028;-95
2023/01/06 06:56:04;;;;;;;1.47;1.30;;;;;;;9.36;100.00;101491.84;4920617;29;20028;-95
2023/01/06 06:58:30;;;;;;;1.70;1.60;;;;;;;9.31;100.00;101498.75;4921680;29;20116;-95
2023/01/06 07:00:55;;;;;;;1.80;1.70;;;;;;;9.29;100.00;101490.97;4921243;29;20111;-95
2023/01/06 07:03:21;;;;;;;2.37;1.50;;;;;;;9.28;100.00;101504.78;4920895;29;20028;-96
2023/01/06 07:06:04;;;;;;;2.13;1.63;;;;;;;9.34;100.00;101519.47;4920855;29;20091;-96
2023/01/06 07:08:31;;;;;;;3.22;1.83;;;;;;;9.26;100.00;101514.28;4921179;29;20107;-95
2023/01/06 07:11:53;;;;;;;2.03;1.70;;;;;;;9.26;100.00;101522.06;4872347;29;20127;-94
2023/01/06 07:14:18;;;;;;;3.10;1.70;;;;;;;9.25;100.00;101526.38;4920799;29;20095;-95
2023/01/06 07:16:44;;;;;;;2.47;1.50;;;;;;;9.24;100.00;101524.66;4921059;29;20024;-94
2023/01/06 07:19:19;;;;;;;2.90;1.73;;;;;;;9.21;100.00;101523.78;4886804;29;20032;-92
2023/01/06 07:21:51;;;;;;;3.05;2.00;;;;;;;9.17;100.00;101514.28;4921415;29;20434;-96
2023/01/06 07:24:19;;;;;;;2.75;1.80;;;;;;;9.14;100.00;101515.16;4921594;29;20079;-96
2023/01/06 07:26:59;;;;;;;1.70;1.60;;;;;;;9.11;100.00;101515.13;4921436;29;20028;-93
2023/01/06 07:29:25;;;;;;;2.33;1.60;;;;;;;9.06;100.00;101506.50;4920087;29;20115;-90
2023/01/06 07:32:08;;;;;;;3.30;1.80;;;;;;;9.05;100.00;101512.53;4921051;29;20046;-92
2023/01/06 07:34:37;;;;;;;1.75;1.60;;;;;;;9.02;100.00;101513.38;4930511;29;20044;-90
2023/01/06 07:37:02;;;;;;;2.08;1.80;;;;;;;9.01;100.00;101519.41;4931652;29;20091;-90
2023/01/06 07:39:27;;;;;;;1.77;1.50;;;;;;;9.01;100.00;101518.56;4929795;29;20025;-90
2023/01/06 07:41:53;;;;;;;1.90;1.70;;;;;;;9.02;100.00;101538.41;4930460;29;20028;-91
2023/01/06 07:44:18;;;;;;;1.63;1.53;;;;;;;9.00;100.00;101528.06;4923343;29;20369;-91
2023/01/06 07:46:43;;;;;;;2.20;1.50;;;;;;;9.00;100.00;101528.06;4920555;29;20032;-91
2023/01/06 07:49:09;;;;;;;1.90;1.70;;;;;;;9.00;100.00;101537.56;4920003;29;20024;-91
2023/01/06 07:51:34;;;;;;;1.70;1.60;;;;;;;9.00;100.00;101537.56;4933683;29;20028;-91
2023/01/06 07:54:00;;;;;;;1.70;1.60;;;;;;;8.99;100.00;101534.13;4934596;29;20027;-90
2023/01/06 07:56:30;;;;;;;2.35;1.83;;;;;;;9.00;100.00;101535.84;4932997;29;20035;-90
2023/01/06 07:58:55;;;;;;;2.53;1.60;;;;;;;9.01;100.00;101547.91;4932601;29;20040;-91
2023/01/06 08:01:22;;;;;;;1.83;1.73;;;;;;;9.02;100.00;101548.78;4922208;29;20540;-90
2023/01/06 08:03:48;;;;;;;1.80;1.63;;;;;;;9.02;100.00;101544.44;4920907;29;20024;-92
2023/01/06 08:06:13;;;;;;;1.63;1.53;;;;;;;9.07;100.00;101554.81;4920258;29;20036;-93
2023/01/06 08:08:40;;;;;;;2.27;1.93;;;;;;;9.06;100.00;101547.94;4920152;29;20481;-91
2023/01/06 08:11:07;;;;;;;1.63;1.52;;;;;;;9.10;100.00;101560.91;4919673;29;20084;-93
2023/01/06 08:13:46;;;;;;;;;;;;;;;9.08;100.00;101572.97;4920012;29;20020;-93
2023/01/06 08:16:12;;;;;;;1.80;1.70;;;;;;;9.07;100.00;101575.53;4919293;29;19921;-94
2023/01/06 08:18:52;;;;;;;2.00;1.80;;;;;;;9.10;100.00;101584.19;4919748;29;20107;-94
2023/01/06 08:21:18;;;;;;;1.85;1.67;;;;;;;9.14;100.00;101579.88;4918919;29;20052;-96
2023/01/06 08:23:43;;;;;;;1.90;1.70;;;;;;;9.18;100.00;101578.16;4919393;29;20028;-92
2023/01/06 08:26:13;;;;;;;1.70;1.60;;;;;;;9.21;100.00;101578.19;4919666;29;20016;-93
2023/01/06 08:28:40;;;;;;;2.15;1.60;;;;;;;9.22;100.00;101583.34;4919684;29;20473;-95
2023/01/06 08:31:21;;;;;;;2.22;1.80;;;;;;;9.22;100.00;101570.41;4919310;29;20537;-94
2023/01/06 08:33:47;;;;;;;2.40;2.20;;;;;;;9.24;100.00;101573.88;4918970;29;20063;-94
2023/01/06 08:36:25;;;;;;;2.10;1.92;;;;;;;9.26;100.00;101579.91;4919233;29;20432;-93
2023/01/06 08:38:51;;;;;;;2.40;2.20;;;;;;;9.31;100.00;101590.28;4918381;29;20034;-94
2023/01/06 08:41:20;;;;;;;2.70;2.10;;;;;;;9.33;100.00;101601.53;4919391;29;20028;-95
2023/01/06 08:43:57;;;;;;;2.38;2.17;;;;;;;9.38;100.00;101599.78;4918801;29;20032;-94
2023/01/06 08:46:48;;;;;;;3.60;2.25;;;;;;;9.40;100.00;101599.81;4918513;29;20505;-93
2023/01/06 08:49:28;;;;;;;2.80;2.50;;;;;;;9.39;100.00;101618.81;4919063;29;20091;-92
2023/01/06 08:51:54;;;;;;;4.38;2.83;;;;;;;9.43;100.00;101620.53;4918870;29;20078;-94
2023/01/06 08:54:41;;;;;;;3.37;2.70;;;;;;;9.46;100.00;101614.50;4918587;29;20024;-95
2023/01/06 08:57:07;;;;;;;4.30;3.00;;;;;;;9.45;100.00;101623.13;4920310;29;20028;-88
2023/01/06 08:59:33;;;;;;;5.05;3.25;;;;;;;9.48;100.00;101636.06;4918935;29;20027;-93
2023/01/06 09:02:05;;;;;;;3.67;2.93;;;;;;;9.47;100.00;101632.63;4918872;29;20024;-93
2023/01/06 09:04:39;;;;;;;3.35;3.00;;;;;;;9.50;100.00;101639.53;4918726;29;20030;-92
2023/01/06 09:07:05;;;;;;;3.75;3.15;;;;;;;9.54;100.00;101643.88;4918486;29;20517;-93
2023/01/06 09:09:30;;;;;;;3.67;3.13;;;;;;;9.51;100.00;101643.88;4919134;29;20028;-92
2023/01/06 09:11:57;;;;;;;4.80;3.30;;;;;;;9.52;100.00;101650.78;4918585;29;20024;-92
2023/01/06 09:14:25;;;;;;;4.30;3.30;;;;;;;9.53;100.00;101642.16;4918148;29;20091;-92
2023/01/06 09:17:00;;;;;;;4.03;3.20;;;;;;;9.52;100.00;101649.03;4918717;29;20052;-93
2023/01/06 09:19:34;;;;;;;5.20;3.63;;;;;;;9.51;100.00;101642.16;4918125;29;20080;-92
2023/01/06 09:22:12;;;;;;;5.18;3.30;;;;;;;9.50;100.00;101653.38;4918468;29;20016;-93
2023/01/06 09:24:37;;;;;;;4.35;3.50;;;;;;;9.50;100.00;101647.31;4918316;29;20537;-93
2023/01/06 09:27:02;;;;;;;5.07;3.50;;;;;;;9.49;100.00;101656.81;4918497;29;20133;-92
2023/01/06 09:29:28;;;;;;;4.30;3.30;;;;;;;9.50;100.00;101663.75;4918205;29;20026;-92
2023/01/06 09:32:05;;;;;;;3.70;3.30;;;;;;;9.48;100.00;101665.47;4918062;29;20032;-92
2023/01/06 09:34:31;;;;;;;4.38;3.50;;;;;;;9.47;100.00;101670.63;4918497;29;20040;-92
2023/01/06 09:36:59;;;;;;;4.70;3.53;;;;;;;9.48;100.00;101677.53;4918400;29;20380;-93
2023/01/06 09:39:25;;;;;;;3.25;2.95;;;;;;;9.52;100.00;101681.88;4917752;29;20071;-93
2023/01/06 09:42:14;;;;;;;4.25;3.58;;;;;;;9.57;100.00;101687.91;4918105;29;20028;-93
2023/01/06 09:45:01;;;;;;;3.55;3.10;;;;;;;9.66;100.00;101693.16;4917112;29;20036;-89
2023/01/06 09:47:45;;;;;;;4.00;3.45;;;;;;;9.72;100.00;101687.09;4915107;29;20034;-89
2023/01/06 09:50:48;;;;;;;3.88;3.20;;;;;;;9.80;100.00;101690.56;4918380;29;20020;-90
2023/01/06 09:53:21;;;;;;;4.47;3.15;;;;;;;9.87;100.00;101704.41;4918001;29;20532;-91
2023/01/06 09:55:50;;;;;;;5.38;3.50;;;;;;;9.95;100.00;101701.84;4918349;29;20040;-89
2023/01/06 09:58:39;;;;;;;6.88;3.70;;;;;;;9.99;100.00;101704.44;4937187;29;20020;-89
2023/01/06 10:01:15;;;;;;;4.10;3.35;;;;;;;10.05;100.00;101714.78;4905059;29;20536;-90
2023/01/06 10:03:46;;;;;;;3.95;3.22;;;;;;;10.08;100.00;101708.72;4936796;29;20087;-89
2023/01/06 10:07:05;;;;;;;3.90;3.10;;;;;;;10.17;100.00;101718.25;4936890;29;20015;-90
2023/01/06 10:10:05;;;;;;;3.60;3.13;;;;;;;10.19;100.00;101716.53;4824668;29;20034;-90
2023/01/06 10:12:46;;;;;;;5.20;3.33;;;;;;;10.19;100.00;101703.56;4917557;29;20036;-90
2023/01/06 10:15:36;;;;;;;3.78;3.35;;;;;;;10.31;100.00;101711.34;4917088;29;20071;-90
2023/01/06 10:18:01;;;;;;;6.55;3.70;;;;;;;10.41;100.00;101711.38;4917181;29;20036;-90
2023/01/06 10:27:41;;;;;;;4.30;3.50;;;;;;;10.59;100.00;101705.31;4866583;29;20055;-92
2023/01/06 10:30:30;;;;;;;5.72;3.70;;;;;;;10.65;100.00;101706.16;4917665;29;20107;-91
2023/01/06 10:32:55;;;;;;;4.70;3.40;;;;;;;10.71;99.99;101712.19;4917196;29;20024;-92
2023/01/06 10:35:24;;;;;;;5.17;3.73;;;;;;;10.80;98.51;101713.03;4923954;23;20044;-91
2023/01/06 10:37:52;;;;;;;7.45;3.60;;;;;;;10.87;98.32;101715.63;4917740;29;20370;-92
2023/01/06 10:40:24;;;;;;;4.28;3.00;;;;;;;11.02;99.42;101704.34;4917556;29;20024;-92
2023/01/06 10:43:02;;;;;;;3.35;2.83;;;;;;;11.20;99.22;101701.66;4917674;29;20055;-91
2023/01/06 10:45:42;;;;;;;4.72;2.95;;;;;;;11.47;95.04;101699.81;4917119;29;20056;-93
2023/01/06 10:48:21;;;;;;;5.07;2.90;;;;;;;11.64;96.26;101706.66;4916846;29;20025;-87
2023/01/06 10:50:47;;;;;;;5.82;2.75;;;;;;;11.70;92.02;101710.06;4917652;29;20036;-92
2023/01/06 10:53:14;;;;;;;6.22;3.10;;;;;;;11.71;90.16;101705.72;4917436;29;20111;-91
2023/01/06 10:55:59;;;;;;;4.22;2.72;;;;;;;11.71;90.54;101704.00;4917672;29;20028;-91
2023/01/06 10:58:48;;;;;;;4.45;2.90;;;;;;;11.72;92.44;101708.34;4917474;29;20025;-91
2023/01/06 11:01:28;;;;;;;5.28;2.80;;;;;;;11.73;91.77;101703.97;4917151;29;20028;-90
2023/01/06 11:04:14;;;;;;;4.50;2.70;;;;;;;11.76;89.69;101703.13;4923880;29;20036;-91
2023/01/06 11:07:00;;;;;;;6.28;2.97;;;;;;;11.74;89.24;101704.00;4917576;29;20032;-92
2023/01/06 11:09:56;;;;;;;3.00;2.70;;;;;;;11.74;89.71;101710.91;4917470;29;20021;-89
2023/01/06 11:12:27;;;;;;;4.03;2.90;;;;;;;11.74;90.31;101711.78;4917744;29;20071;-92
2023/01/06 11:15:06;;;;;;;3.85;2.70;;;;;;;11.69;90.48;101705.75;4919704;29;20052;-93
2023/01/06 11:17:46;;;;;;;5.18;2.90;;;;;;;11.68;90.41;101719.63;4917378;29;20024;-92
2023/01/06 11:20:12;;;;;;;5.45;3.33;;;;;;;11.70;88.19;101706.63;4916517;29;20021;-94
2023/01/06 11:23:04;;;;;;;5.67;3.40;;;;;;;11.69;89.68;101710.94;4917105;29;20130;-92
2023/01/06 11:25:32;;;;;;;4.72;3.50;;;;;;;11.74;89.42;101704.00;4874514;29;20041;-91
2023/01/06 11:28:18;;;;;;;5.97;3.75;;;;;;;11.82;89.75;101708.28;4901560;29;20021;-92
2023/01/06 11:31:07;;;;;;;6.43;4.18;;;;;;;11.83;88.68;101695.25;4900838;29;20470;-93
2023/01/06 11:33:51;;;;;;;5.50;3.88;;;;;;;11.88;89.77;101695.22;4901412;29;20144;-92
2023/01/06 11:36:31;;;;;;;5.78;4.07;;;;;;;11.86;85.71;101700.44;4900855;29;20052;-92
2023/01/06 11:39:25;;;;;;;6.30;4.35;;;;;;;11.89;86.32;101705.63;4901771;29;20044;-93
2023/01/06 11:41:54;;;;;;;7.30;5.03;;;;;;;11.82;85.75;101698.72;4901764;29;20084;-93
2023/01/06 11:44:43;;;;;;;5.38;4.13;;;;;;;11.85;85.62;101705.66;4907477;23;20064;-92
2023/01/06 11:47:39;;;;;;;7.25;4.53;;;;;;;11.87;86.46;101703.91;4901229;29;20123;-93
2023/01/06 11:50:05;;;;;;;7.10;4.53;;;;;;;11.84;85.29;101696.97;4901016;29;20029;-93
2023/01/06 11:53:13;;;;;;;6.10;4.10;;;;;;;11.90;84.60;101696.94;4900366;29;20097;-93
2023/01/06 11:55:38;;;;;;;5.78;3.95;;;;;;;11.88;85.48;101688.28;4901122;29;20177;-95
2023/01/06 11:58:27;;;;;;;3.87;3.37;;;;;;;11.91;84.83;101684.78;4901175;29;20107;-93
2023/01/06 12:01:30;;;;;;;4.25;3.10;;;;;;;11.99;86.51;101684.78;4901769;29;20033;-89
2023/01/06 12:04:35;;;;;;;3.30;2.60;;;;;;;11.99;83.54;101685.63;4902703;29;20434;-92
2023/01/06 12:07:30;;;;;;;3.00;2.70;;;;;;;12.03;84.62;101670.88;4900711;29;20020;-91
2023/01/06 12:10:02;;;;;;;4.40;2.70;;;;;;;12.01;82.00;101676.06;4899623;29;20037;-91
2023/01/06 12:12:28;;;;;;;4.47;2.60;;;;;;;11.97;81.20;101671.75;4901107;29;20032;-91
2023/01/06 12:14:54;;;;;;;2.60;2.20;;;;;;;12.01;84.10;101673.47;4899864;29;20024;-91
2023/01/06 12:21:24;;;;;;;2.92;2.00;;;;;;;12.03;81.01;101669.13;4882538;29;20044;-91
2023/01/06 12:23:51;;;;;;;3.10;2.22;;;;;;;12.03;81.88;101670.88;4853128;29;20055;-91
2023/01/06 12:26:34;;;;;;;2.13;1.80;;;;;;;12.02;80.00;101661.34;4881886;29;20505;-93
2023/01/06 12:29:13;;;;;;;4.68;2.30;;;;;;;11.97;82.71;101663.94;4881967;29;20065;-91
2023/01/06 12:32:11;;;;;;;3.03;2.28;;;;;;;11.86;81.81;101665.78;4881018;29;20106;-91
2023/01/06 12:34:49;;;;;;;5.28;2.45;;;;;;;11.81;79.62;101664.94;4881695;29;20048;-92
2023/01/06 12:37:38;;;;;;;2.63;2.20;;;;;;;11.77;79.82;101660.63;4881398;29;20032;-91
2023/01/06 12:40:41;;;;;;;5.25;2.78;;;;;;;11.71;80.66;101656.31;4881619;29;20033;-91
2023/01/06 12:43:21;;;;;;;4.55;3.03;;;;;;;11.60;79.46;101661.59;4883266;29;20084;-91
2023/01/06 12:46:01;;;;;;;3.58;2.92;;;;;;;11.56;82.11;101663.38;4881443;29;20072;-91
2023/01/06 12:48:47;;;;;;;4.00;3.00;;;;;;;11.55;82.64;101664.25;4895628;29;20037;-91